sensor_id;sensor_type;location;lat;lon;timestamp;pressure;altitude;pressure_sealevel;temperature;humidity
69780;BME280;57052;55.602;38.096;2023-06-22T00:00:58;100553.94;;;15.58;50.38
69780;BME280;57052;55.602;38.096;2023-06-22T00:03:26;100557.56;;;15.54;50.48
69780;BME280;57052;55.602;38.096;2023-06-22T00:05:52;100556.28;;;15.46;50.70
69780;BME280;57052;55.602;38.096;2023-06-22T00:08:18;100560.13;;;15.45;50.81
69780;BME280;57052;55.602;38.096;2023-06-22T00:10:44;100550.94;;;15.36;50.95
69780;BME280;57052;55.602;38.096;2023-06-22T00:13:12;100559.66;;;15.38;50.99
69780;BME280;57052;55.602;38.096;2023-06-22T00:15:39;100551.75;;;15.36;50.99
69780;BME280;57052;55.602;38.096;2023-06-22T00:18:06;100541.28;;;15.25;51.49
69780;BME280;57052;55.602;38.096;2023-06-22T00:20:32;100539.50;;;15.15;51.49
69780;BME280;57052;55.602;38.096;2023-06-22T00:22:59;100554.09;;;15.24;51.60
69780;BME280;57052;55.602;38.096;2023-06-22T00:25:25;100565.31;;;15.23;51.38
69780;BME280;57052;55.602;38.096;2023-06-22T00:27:51;100567.81;;;15.19;51.47
69780;BME280;57052;55.602;38.096;2023-06-22T00:30:18;100565.66;;;15.16;51.87
69780;BME280;57052;55.602;38.096;2023-06-22T00:32:45;100556.00;;;15.05;51.90
69780;BME280;57052;55.602;38.096;2023-06-22T00:35:14;100569.06;;;15.03;52.70
69780;BME280;57052;55.602;38.096;2023-06-22T00:37:40;100562.91;;;14.98;51.93
69780;BME280;57052;55.602;38.096;2023-06-22T00:40:09;100563.06;;;15.06;52.16
69780;BME280;57052;55.602;38.096;2023-06-22T00:42:38;100559.28;;;15.02;52.32
69780;BME280;57052;55.602;38.096;2023-06-22T00:45:05;100563.88;;;15.07;52.50
69780;BME280;57052;55.602;38.096;2023-06-22T00:47:34;100547.94;;;14.95;52.80
69780;BME280;57052;55.602;38.096;2023-06-22T00:50:00;100572.34;;;15.05;52.70
69780;BME280;57052;55.602;38.096;2023-06-22T00:52:26;100567.47;;;15.02;52.96
69780;BME280;57052;55.602;38.096;2023-06-22T00:54:56;100566.13;;;15.00;53.47
69780;BME280;57052;55.602;38.096;2023-06-22T00:57:24;100566.72;;;14.97;53.46
69780;BME280;57052;55.602;38.096;2023-06-22T00:59:54;100572.47;;;14.95;53.25
69780;BME280;57052;55.602;38.096;2023-06-22T01:02:20;100563.28;;;14.86;53.62
69780;BME280;57052;55.602;38.096;2023-06-22T01:04:46;100561.94;;;14.84;53.45
69780;BME280;57052;55.602;38.096;2023-06-22T01:13:01;100554.50;;;14.65;56.17
69780;BME280;57052;55.602;38.096;2023-06-22T01:15:37;100551.50;;;14.67;54.60
69780;BME280;57052;55.602;38.096;2023-06-22T01:18:06;100570.47;;;14.77;53.95
69780;BME280;57052;55.602;38.096;2023-06-22T01:20:34;100575.09;;;14.76;54.06
69780;BME280;57052;55.602;38.096;2023-06-22T01:23:14;100572.13;;;14.73;56.03
69780;BME280;57052;55.602;38.096;2023-06-22T01:26:06;100575.72;;;14.68;56.23
69780;BME280;57052;55.602;38.096;2023-06-22T01:28:56;100569.41;;;14.73;54.09
69780;BME280;57052;55.602;38.096;2023-06-22T01:31:24;100575.16;;;14.71;54.71
69780;BME280;57052;55.602;38.096;2023-06-22T01:33:56;100564.63;;;14.65;55.22
69780;BME280;57052;55.602;38.096;2023-06-22T01:36:23;100579.78;;;14.71;54.40
69780;BME280;57052;55.602;38.096;2023-06-22T01:38:49;100567.59;;;14.63;54.00
69780;BME280;57052;55.602;38.096;2023-06-22T01:41:16;100579.78;;;14.71;54.33
69780;BME280;57052;55.602;38.096;2023-06-22T01:43:43;100567.56;;;14.68;54.44
69780;BME280;57052;55.602;38.096;2023-06-22T01:46:11;100547.56;;;14.54;54.61
69780;BME280;57052;55.602;38.096;2023-06-22T01:48:38;100559.44;;;14.63;54.70
69780;BME280;57052;55.602;38.096;2023-06-22T01:51:04;100574.13;;;14.67;54.72
69780;BME280;57052;55.602;38.096;2023-06-22T01:53:30;100573.34;;;14.62;54.81
69780;BME280;57052;55.602;38.096;2023-06-22T01:55:56;100579.78;;;14.71;54.78
69780;BME280;57052;55.602;38.096;2023-06-22T01:58:26;100573.00;;;14.68;55.20
69780;BME280;57052;55.602;38.096;2023-06-22T02:01:12;100580.97;;;14.65;56.58
69780;BME280;57052;55.602;38.096;2023-06-22T02:03:46;100577.88;;;14.71;55.89
69780;BME280;57052;55.602;38.096;2023-06-22T02:06:17;100572.13;;;14.73;55.29
69780;BME280;57052;55.602;38.096;2023-06-22T02:08:59;100574.41;;;14.66;56.31
69780;BME280;57052;55.602;38.096;2023-06-22T02:11:27;100578.97;;;14.70;54.88
69780;BME280;57052;55.602;38.096;2023-06-22T02:13:56;100557.53;;;14.64;55.20
69780;BME280;57052;55.602;38.096;2023-06-22T02:16:23;100556.50;;;14.60;54.87
69780;BME280;57052;55.602;38.096;2023-06-22T02:18:50;100573.16;;;14.82;54.89
69780;BME280;57052;55.602;38.096;2023-06-22T02:21:21;100572.84;;;14.84;54.69
69780;BME280;57052;55.602;38.096;2023-06-22T02:23:47;100567.13;;;14.85;54.67
69780;BME280;57052;55.602;38.096;2023-06-22T02:26:15;100575.00;;;14.87;54.68
69780;BME280;57052;55.602;38.096;2023-06-22T02:28:41;100575.25;;;14.90;54.24
69780;BME280;57052;55.602;38.096;2023-06-22T02:31:07;100571.69;;;14.90;54.47
69780;BME280;57052;55.602;38.096;2023-06-22T02:33:32;100542.66;;;14.80;54.38
69780;BME280;57052;55.602;38.096;2023-06-22T02:35:58;100552.03;;;14.93;54.58
69780;BME280;57052;55.602;38.096;2023-06-22T02:38:23;100542.69;;;14.99;54.54
69780;BME280;57052;55.602;38.096;2023-06-22T02:40:50;100544.53;;;15.03;54.45
69780;BME280;57052;55.602;38.096;2023-06-22T02:43:16;100550.53;;;15.05;54.23
69780;BME280;57052;55.602;38.096;2023-06-22T02:45:42;100536.28;;;15.08;54.27
69780;BME280;57052;55.602;38.096;2023-06-22T02:48:07;100544.72;;;15.12;54.07
69780;BME280;57052;55.602;38.096;2023-06-22T02:50:33;100528.66;;;15.10;54.23
69780;BME280;57052;55.602;38.096;2023-06-22T02:52:59;100522.09;;;15.11;53.83
69780;BME280;57052;55.602;38.096;2023-06-22T02:55:24;100523.66;;;15.17;53.85
69780;BME280;57052;55.602;38.096;2023-06-22T02:57:50;100534.44;;;15.27;54.02
69780;BME280;57052;55.602;38.096;2023-06-22T03:00:19;100523.28;;;15.24;53.94
69780;BME280;57052;55.602;38.096;2023-06-22T03:02:46;100528.59;;;15.34;53.55
69780;BME280;57052;55.602;38.096;2023-06-22T03:05:13;100535.38;;;15.36;53.77
69780;BME280;57052;55.602;38.096;2023-06-22T03:07:46;100529.66;;;15.38;54.53
69780;BME280;57052;55.602;38.096;2023-06-22T03:10:13;100529.88;;;15.41;53.87
69780;BME280;57052;55.602;38.096;2023-06-22T03:12:40;100530.94;;;15.46;53.88
69780;BME280;57052;55.602;38.096;2023-06-22T03:15:08;100523.28;;;15.48;54.47
69780;BME280;57052;55.602;38.096;2023-06-22T03:17:35;100524.59;;;15.50;53.98
69780;BME280;57052;55.602;38.096;2023-06-22T03:20:02;100531.38;;;15.53;53.97
69780;BME280;57052;55.602;38.096;2023-06-22T03:22:35;100517.31;;;15.46;53.99
69780;BME280;57052;55.602;38.096;2023-06-22T03:25:01;100535.66;;;15.59;53.92
69780;BME280;57052;55.602;38.096;2023-06-22T03:27:30;100530.69;;;15.61;53.63
69780;BME280;57052;55.602;38.096;2023-06-22T03:29:57;100523.34;;;15.61;53.81
69780;BME280;57052;55.602;38.096;2023-06-22T03:32:23;100528.44;;;15.68;53.61
69780;BME280;57052;55.602;38.096;2023-06-22T03:34:48;100525.09;;;15.71;53.30
69780;BME280;57052;55.602;38.096;2023-06-22T03:37:14;100509.59;;;15.66;53.11
69780;BME280;57052;55.602;38.096;2023-06-22T03:39:43;100519.13;;;15.69;53.34
69780;BME280;57052;55.602;38.096;2023-06-22T03:42:09;100525.75;;;15.81;52.92
69780;BME280;57052;55.602;38.096;2023-06-22T03:44:35;100515.34;;;15.83;52.82
69780;BME280;57052;55.602;38.096;2023-06-22T03:47:04;100529.88;;;15.97;52.42
69780;BME280;57052;55.602;38.096;2023-06-22T03:49:29;100528.16;;;16.01;51.99
69780;BME280;57052;55.602;38.096;2023-06-22T03:51:55;100522.53;;;16.12;51.79
69780;BME280;57052;55.602;38.096;2023-06-22T03:54:21;100522.75;;;16.15;51.29
69780;BME280;57052;55.602;38.096;2023-06-22T03:56:47;100517.50;;;16.19;51.03
69780;BME280;57052;55.602;38.096;2023-06-22T03:59:12;100516.63;;;16.23;50.78
69780;BME280;57052;55.602;38.096;2023-06-22T04:01:38;100517.31;;;16.29;50.70
69780;BME280;57052;55.602;38.096;2023-06-22T04:04:04;100514.50;;;16.34;50.50
69780;BME280;57052;55.602;38.096;2023-06-22T04:06:29;100504.88;;;16.36;50.17
69780;BME280;57052;55.602;38.096;2023-06-22T04:08:55;100504.41;;;16.48;50.32
69780;BME280;57052;55.602;38.096;2023-06-22T04:11:20;100504.03;;;16.54;50.05
69780;BME280;57052;55.602;38.096;2023-06-22T04:13:46;100500.63;;;16.62;49.85
69780;BME280;57052;55.602;38.096;2023-06-22T04:16:14;100492.31;;;16.67;49.65
69780;BME280;57052;55.602;38.096;2023-06-22T04:18:39;100491.19;;;16.68;49.34
69780;BME280;57052;55.602;38.096;2023-06-22T04:21:05;100500.22;;;16.83;49.13
69780;BME280;57052;55.602;38.096;2023-06-22T04:23:31;100482.78;;;16.79;48.93
69780;BME280;57052;55.602;38.096;2023-06-22T04:25:56;100495.03;;;16.95;49.11
69780;BME280;57052;55.602;38.096;2023-06-22T04:28:23;100486.22;;;16.98;48.73
69780;BME280;57052;55.602;38.096;2023-06-22T04:30:48;100490.16;;;17.05;48.90
69780;BME280;57052;55.602;38.096;2023-06-22T04:33:17;100490.78;;;17.16;48.62
69780;BME280;57052;55.602;38.096;2023-06-22T04:35:45;100480.31;;;17.18;48.74
69780;BME280;57052;55.602;38.096;2023-06-22T04:38:12;100489.09;;;17.28;48.54
69780;BME280;57052;55.602;38.096;2023-06-22T04:40:39;100488.19;;;17.33;48.70
69780;BME280;57052;55.602;38.096;2023-06-22T04:43:05;100476.44;;;17.33;48.56
69780;BME280;57052;55.602;38.096;2023-06-22T04:45:32;100467.09;;;17.33;48.70
69780;BME280;57052;55.602;38.096;2023-06-22T04:47:58;100463.13;;;17.40;48.95
69780;BME280;57052;55.602;38.096;2023-06-22T04:50:24;100467.88;;;17.48;48.78
69780;BME280;57052;55.602;38.096;2023-06-22T04:52:50;100464.44;;;17.56;48.73
69780;BME280;57052;55.602;38.096;2023-06-22T04:55:17;100470.97;;;17.68;48.77
69780;BME280;57052;55.602;38.096;2023-06-22T04:57:45;100477.00;;;17.79;48.94
69780;BME280;57052;55.602;38.096;2023-06-22T05:00:15;100462.41;;;17.83;48.46
69780;BME280;57052;55.602;38.096;2023-06-22T05:02:44;100476.31;;;17.96;48.59
69780;BME280;57052;55.602;38.096;2023-06-22T05:05:11;100469.91;;;18.00;48.40
69780;BME280;57052;55.602;38.096;2023-06-22T05:07:40;100480.59;;;18.10;47.91
69780;BME280;57052;55.602;38.096;2023-06-22T05:10:09;100476.47;;;18.21;47.84
69780;BME280;57052;55.602;38.096;2023-06-22T05:12:39;100483.44;;;18.27;47.74
69780;BME280;57052;55.602;38.096;2023-06-22T05:15:09;100483.50;;;18.36;47.67
69780;BME280;57052;55.602;38.096;2023-06-22T05:17:36;100481.09;;;18.43;47.54
69780;BME280;57052;55.602;38.096;2023-06-22T05:20:02;100474.56;;;18.52;47.26
69780;BME280;57052;55.602;38.096;2023-06-22T05:22:32;100478.13;;;18.62;47.35
69780;BME280;57052;55.602;38.096;2023-06-22T05:24:57;100459.75;;;18.62;46.97
69780;BME280;57052;55.602;38.096;2023-06-22T05:27:23;100469.13;;;18.70;46.66
69780;BME280;57052;55.602;38.096;2023-06-22T05:29:48;100471.94;;;18.78;46.57
69780;BME280;57052;55.602;38.096;2023-06-22T05:32:14;100463.56;;;18.83;46.30
69780;BME280;57052;55.602;38.096;2023-06-22T05:34:40;100471.00;;;18.91;45.94
69780;BME280;57052;55.602;38.096;2023-06-22T05:37:05;100440.16;;;18.86;45.79
69780;BME280;57052;55.602;38.096;2023-06-22T05:39:31;100462.47;;;19.10;45.35
69780;BME280;57052;55.602;38.096;2023-06-22T05:41:57;100456.66;;;19.11;44.95
69780;BME280;57052;55.602;38.096;2023-06-22T05:44:23;100447.47;;;19.16;44.79
69780;BME280;57052;55.602;38.096;2023-06-22T05:46:48;100446.50;;;19.20;44.54
69780;BME280;57052;55.602;38.096;2023-06-22T05:49:15;100459.47;;;19.37;44.42
69780;BME280;57052;55.602;38.096;2023-06-22T05:51:42;100457.03;;;19.44;44.08
69780;BME280;57052;55.602;38.096;2023-06-22T05:54:08;100451.25;;;19.46;44.24
69780;BME280;57052;55.602;38.096;2023-06-22T05:56:34;100461.09;;;19.55;44.21
69780;BME280;57052;55.602;38.096;2023-06-22T05:59:00;100459.63;;;19.58;44.08
69780;BME280;57052;55.602;38.096;2023-06-22T06:01:26;100456.91;;;19.66;44.27
69780;BME280;57052;55.602;38.096;2023-06-22T06:03:52;100458.50;;;19.76;44.21
69780;BME280;57052;55.602;38.096;2023-06-22T06:06:18;100451.84;;;19.77;43.67
69780;BME280;57052;55.602;38.096;2023-06-22T06:08:46;100439.09;;;19.72;43.49
69780;BME280;57052;55.602;38.096;2023-06-22T06:11:12;100440.53;;;19.87;43.01
69780;BME280;57052;55.602;38.096;2023-06-22T06:13:38;100448.44;;;19.97;43.10
69780;BME280;57052;55.602;38.096;2023-06-22T06:16:04;100446.31;;;20.03;42.91
69780;BME280;57052;55.602;38.096;2023-06-22T06:18:30;100444.03;;;20.13;42.73
69780;BME280;57052;55.602;38.096;2023-06-22T06:20:56;100444.34;;;20.20;42.86
69780;BME280;57052;55.602;38.096;2023-06-22T06:23:22;100443.53;;;20.28;42.44
69780;BME280;57052;55.602;38.096;2023-06-22T06:25:47;100443.34;;;20.33;42.57
69780;BME280;57052;55.602;38.096;2023-06-22T06:28:13;100453.00;;;20.48;42.68
69780;BME280;57052;55.602;38.096;2023-06-22T06:30:38;100441.81;;;20.53;42.25
69780;BME280;57052;55.602;38.096;2023-06-22T06:33:04;100439.03;;;20.62;41.77
69780;BME280;57052;55.602;38.096;2023-06-22T06:35:34;100441.44;;;20.63;41.55
69780;BME280;57052;55.602;38.096;2023-06-22T06:38:00;100443.19;;;20.68;41.66
69780;BME280;57052;55.602;38.096;2023-06-22T06:40:26;100440.25;;;20.73;41.49
69780;BME280;57052;55.602;38.096;2023-06-22T06:42:52;100439.59;;;20.76;41.34
69780;BME280;57052;55.602;38.096;2023-06-22T06:45:19;100435.03;;;20.80;41.42
69780;BME280;57052;55.602;38.096;2023-06-22T06:47:46;100443.38;;;20.92;41.09
69780;BME280;57052;55.602;38.096;2023-06-22T06:50:12;100443.19;;;20.97;41.01
69780;BME280;57052;55.602;38.096;2023-06-22T06:52:38;100420.69;;;20.95;40.67
69780;BME280;57052;55.602;38.096;2023-06-22T06:55:04;100425.00;;;21.04;40.51
69780;BME280;57052;55.602;38.096;2023-06-22T06:57:34;100434.88;;;21.14;40.36
69780;BME280;57052;55.602;38.096;2023-06-22T07:00:00;100426.53;;;21.23;40.14
69780;BME280;57052;55.602;38.096;2023-06-22T07:02:26;100429.22;;;21.31;39.89
69780;BME280;57052;55.602;38.096;2023-06-22T07:04:55;100430.31;;;21.39;39.94
69780;BME280;57052;55.602;38.096;2023-06-22T07:07:21;100423.31;;;21.41;39.25
69780;BME280;57052;55.602;38.096;2023-06-22T07:09:46;100422.09;;;21.51;39.24
69780;BME280;57052;55.602;38.096;2023-06-22T07:12:12;100420.53;;;21.62;39.36
69780;BME280;57052;55.602;38.096;2023-06-22T07:14:38;100423.66;;;21.72;39.02
69780;BME280;57052;55.602;38.096;2023-06-22T07:17:04;100416.13;;;21.82;38.41
69780;BME280;57052;55.602;38.096;2023-06-22T07:19:30;100421.25;;;21.92;38.48
69780;BME280;57052;55.602;38.096;2023-06-22T07:21:57;100416.78;;;21.99;38.52
69780;BME280;57052;55.602;38.096;2023-06-22T07:24:22;100409.56;;;22.07;37.93
69780;BME280;57052;55.602;38.096;2023-06-22T07:26:49;100416.13;;;22.14;38.25
69780;BME280;57052;55.602;38.096;2023-06-22T07:29:17;100407.28;;;22.21;37.85
69780;BME280;57052;55.602;38.096;2023-06-22T07:31:43;100384.41;;;22.20;37.95
69780;BME280;57052;55.602;38.096;2023-06-22T07:34:09;100408.69;;;22.39;38.23
69780;BME280;57052;55.602;38.096;2023-06-22T07:36:34;100401.56;;;22.50;37.69
69780;BME280;57052;55.602;38.096;2023-06-22T07:39:02;100398.94;;;22.54;37.45
69780;BME280;57052;55.602;38.096;2023-06-22T07:41:29;100400.91;;;22.65;37.01
69780;BME280;57052;55.602;38.096;2023-06-22T07:43:55;100399.53;;;22.71;36.60
69780;BME280;57052;55.602;38.096;2023-06-22T07:46:21;100386.06;;;22.70;35.96
69780;BME280;57052;55.602;38.096;2023-06-22T07:48:47;100388.56;;;22.75;34.95
69780;BME280;57052;55.602;38.096;2023-06-22T07:51:13;100384.81;;;22.79;34.86
69780;BME280;57052;55.602;38.096;2023-06-22T07:53:40;100396.06;;;22.86;34.94
69780;BME280;57052;55.602;38.096;2023-06-22T07:56:06;100382.81;;;22.92;34.30
69780;BME280;57052;55.602;38.096;2023-06-22T07:58:35;100387.38;;;23.00;34.58
69780;BME280;57052;55.602;38.096;2023-06-22T08:01:01;100389.81;;;23.02;34.48
69780;BME280;57052;55.602;38.096;2023-06-22T08:03:27;100384.94;;;23.11;34.01
69780;BME280;57052;55.602;38.096;2023-06-22T08:05:52;100387.03;;;23.14;33.84
69780;BME280;57052;55.602;38.096;2023-06-22T08:08:18;100388.41;;;23.20;33.49
69780;BME280;57052;55.602;38.096;2023-06-22T08:10:44;100385.84;;;23.27;32.88
69780;BME280;57052;55.602;38.096;2023-06-22T08:13:09;100377.75;;;23.34;32.93
69780;BME280;57052;55.602;38.096;2023-06-22T08:15:35;100385.13;;;23.42;32.96
69780;BME280;57052;55.602;38.096;2023-06-22T08:18:01;100366.22;;;23.44;32.94
69780;BME280;57052;55.602;38.096;2023-06-22T08:20:26;100363.22;;;23.49;32.07
69780;BME280;57052;55.602;38.096;2023-06-22T08:22:53;100364.03;;;23.49;32.03
69780;BME280;57052;55.602;38.096;2023-06-22T08:25:19;100373.84;;;23.63;31.85
69780;BME280;57052;55.602;38.096;2023-06-22T08:27:47;100360.56;;;23.68;32.47
69780;BME280;57052;55.602;38.096;2023-06-22T08:30:14;100364.69;;;23.74;32.31
69780;BME280;57052;55.602;38.096;2023-06-22T08:32:40;100351.31;;;23.76;32.16
69780;BME280;57052;55.602;38.096;2023-06-22T08:35:06;100343.03;;;23.76;32.06
69780;BME280;57052;55.602;38.096;2023-06-22T08:37:33;100361.16;;;23.89;31.48
69780;BME280;57052;55.602;38.096;2023-06-22T08:40:03;100360.44;;;23.92;31.12
69780;BME280;57052;55.602;38.096;2023-06-22T08:42:34;100355.69;;;23.93;31.59
69780;BME280;57052;55.602;38.096;2023-06-22T08:45:00;100359.38;;;23.97;31.69
69780;BME280;57052;55.602;38.096;2023-06-22T08:47:27;100351.25;;;24.04;31.24
69780;BME280;57052;55.602;38.096;2023-06-22T08:49:53;100347.44;;;24.08;31.39
69780;BME280;57052;55.602;38.096;2023-06-22T08:52:19;100350.81;;;24.17;31.45
69780;BME280;57052;55.602;38.096;2023-06-22T08:54:46;100340.56;;;24.18;31.65
69780;BME280;57052;55.602;38.096;2023-06-22T08:57:11;100328.63;;;24.14;31.64
69780;BME280;57052;55.602;38.096;2023-06-22T08:59:37;100324.84;;;24.06;31.63
69780;BME280;57052;55.602;38.096;2023-06-22T09:02:03;100334.34;;;24.21;31.82
69780;BME280;57052;55.602;38.096;2023-06-22T09:04:28;100336.94;;;24.30;31.79
69780;BME280;57052;55.602;38.096;2023-06-22T09:06:54;100329.94;;;24.36;31.85
69780;BME280;57052;55.602;38.096;2023-06-22T09:09:21;100335.41;;;24.32;31.28
69780;BME280;57052;55.602;38.096;2023-06-22T09:11:47;100323.16;;;24.33;31.44
69780;BME280;57052;55.602;38.096;2023-06-22T09:14:12;100337.97;;;24.41;31.44
69780;BME280;57052;55.602;38.096;2023-06-22T09:16:38;100331.06;;;24.50;31.59
69780;BME280;57052;55.602;38.096;2023-06-22T09:19:04;100321.88;;;24.62;30.89
69780;BME280;57052;55.602;38.096;2023-06-22T09:21:30;100324.63;;;24.77;31.25
69780;BME280;57052;55.602;38.096;2023-06-22T09:23:56;100317.28;;;24.85;30.76
69780;BME280;57052;55.602;38.096;2023-06-22T09:26:22;100319.75;;;25.09;31.10
69780;BME280;57052;55.602;38.096;2023-06-22T09:28:49;100316.91;;;25.25;30.82
69780;BME280;57052;55.602;38.096;2023-06-22T09:31:15;100311.44;;;25.28;30.10
69780;BME280;57052;55.602;38.096;2023-06-22T09:33:42;100305.72;;;25.40;29.57
69780;BME280;57052;55.602;38.096;2023-06-22T09:36:07;100315.94;;;25.56;29.74
69780;BME280;57052;55.602;38.096;2023-06-22T09:38:37;100311.53;;;25.74;29.42
69780;BME280;57052;55.602;38.096;2023-06-22T09:41:03;100299.09;;;25.87;29.44
69780;BME280;57052;55.602;38.096;2023-06-22T09:43:30;100289.03;;;26.01;29.13
69780;BME280;57052;55.602;38.096;2023-06-22T09:45:56;100311.63;;;26.23;29.02
69780;BME280;57052;55.602;38.096;2023-06-22T09:48:22;100299.66;;;26.19;29.02
69780;BME280;57052;55.602;38.096;2023-06-22T09:50:48;100287.88;;;26.25;28.83
69780;BME280;57052;55.602;38.096;2023-06-22T09:53:14;100302.13;;;26.50;28.59
69780;BME280;57052;55.602;38.096;2023-06-22T09:55:39;100299.75;;;26.52;27.89
69780;BME280;57052;55.602;38.096;2023-06-22T09:58:05;100299.06;;;26.58;27.92
69780;BME280;57052;55.602;38.096;2023-06-22T10:00:30;100296.81;;;26.67;27.39
69780;BME280;57052;55.602;38.096;2023-06-22T10:02:57;100281.00;;;26.71;27.12
69780;BME280;57052;55.602;38.096;2023-06-22T10:05:22;100280.09;;;26.90;27.38
69780;BME280;57052;55.602;38.096;2023-06-22T10:07:48;100291.31;;;27.01;26.72
69780;BME280;57052;55.602;38.096;2023-06-22T10:10:14;100296.88;;;27.01;27.03
69780;BME280;57052;55.602;38.096;2023-06-22T10:12:48;100295.13;;;27.19;26.27
69780;BME280;57052;55.602;38.096;2023-06-22T10:15:19;100284.94;;;27.30;26.62
69780;BME280;57052;55.602;38.096;2023-06-22T10:17:46;100286.38;;;27.50;26.36
69780;BME280;57052;55.602;38.096;2023-06-22T10:20:13;100286.50;;;27.64;26.04
69780;BME280;57052;55.602;38.096;2023-06-22T10:22:43;100264.38;;;27.78;25.73
69780;BME280;57052;55.602;38.096;2023-06-22T10:25:10;100277.38;;;28.11;25.71
69780;BME280;57052;55.602;38.096;2023-06-22T10:27:37;100269.88;;;28.15;25.37
69780;BME280;57052;55.602;38.096;2023-06-22T10:30:09;100261.25;;;28.31;24.94
69780;BME280;57052;55.602;38.096;2023-06-22T10:32:37;100261.53;;;28.19;24.60
69780;BME280;57052;55.602;38.096;2023-06-22T10:35:03;100267.25;;;28.40;24.96
69780;BME280;57052;55.602;38.096;2023-06-22T10:37:31;100257.41;;;28.56;24.60
69780;BME280;57052;55.602;38.096;2023-06-22T10:39:57;100272.28;;;28.82;24.11
69780;BME280;57052;55.602;38.096;2023-06-22T10:42:23;100246.50;;;29.02;23.63
69780;BME280;57052;55.602;38.096;2023-06-22T10:44:49;100257.75;;;29.24;23.94
69780;BME280;57052;55.602;38.096;2023-06-22T10:47:14;100251.41;;;29.37;23.13
69780;BME280;57052;55.602;38.096;2023-06-22T10:49:41;100245.84;;;29.55;22.85
69780;BME280;57052;55.602;38.096;2023-06-22T10:52:07;100247.09;;;29.78;22.95
69780;BME280;57052;55.602;38.096;2023-06-22T10:54:34;100247.50;;;29.98;22.79
69780;BME280;57052;55.602;38.096;2023-06-22T10:57:00;100241.13;;;30.01;22.87
69780;BME280;57052;55.602;38.096;2023-06-22T10:59:26;100243.50;;;30.13;22.53
69780;BME280;57052;55.602;38.096;2023-06-22T11:01:55;100236.69;;;30.21;22.68
69780;BME280;57052;55.602;38.096;2023-06-22T11:04:21;100223.88;;;30.41;22.98
69780;BME280;57052;55.602;38.096;2023-06-22T11:06:48;100225.38;;;30.81;22.70
69780;BME280;57052;55.602;38.096;2023-06-22T11:09:13;100229.22;;;31.12;22.45
69780;BME280;57052;55.602;38.096;2023-06-22T11:11:44;100229.16;;;31.19;22.28
69780;BME280;57052;55.602;38.096;2023-06-22T11:14:10;100227.44;;;31.43;22.27
69780;BME280;57052;55.602;38.096;2023-06-22T11:16:36;100228.75;;;31.24;22.38
69780;BME280;57052;55.602;38.096;2023-06-22T11:19:02;100215.13;;;31.33;21.68
69780;BME280;57052;55.602;38.096;2023-06-22T11:21:28;100214.38;;;31.22;21.69
69780;BME280;57052;55.602;38.096;2023-06-22T11:23:54;100222.63;;;31.43;21.51
69780;BME280;57052;55.602;38.096;2023-06-22T11:26:20;100216.44;;;31.73;21.76
69780;BME280;57052;55.602;38.096;2023-06-22T11:28:47;100207.41;;;32.03;21.26
69780;BME280;57052;55.602;38.096;2023-06-22T11:31:12;100216.34;;;32.28;21.05
69780;BME280;57052;55.602;38.096;2023-06-22T11:33:38;100213.28;;;32.53;21.32
69780;BME280;57052;55.602;38.096;2023-06-22T11:36:04;100211.34;;;32.80;20.63
69780;BME280;57052;55.602;38.096;2023-06-22T11:38:30;100188.19;;;32.76;19.81
69780;BME280;57052;55.602;38.096;2023-06-22T11:41:00;100208.66;;;33.00;19.20
69780;BME280;57052;55.602;38.096;2023-06-22T11:43:25;100204.41;;;33.22;19.45
69780;BME280;57052;55.602;38.096;2023-06-22T11:45:51;100206.13;;;33.39;19.51
69780;BME280;57052;55.602;38.096;2023-06-22T11:48:17;100207.34;;;33.65;18.81
69780;BME280;57052;55.602;38.096;2023-06-22T11:50:42;100207.91;;;33.56;18.85
69780;BME280;57052;55.602;38.096;2023-06-22T11:53:08;100206.13;;;33.39;18.40
69780;BME280;57052;55.602;38.096;2023-06-22T11:55:34;100190.09;;;33.13;18.63
69780;BME280;57052;55.602;38.096;2023-06-22T11:57:59;100189.44;;;33.02;18.70
69780;BME280;57052;55.602;38.096;2023-06-22T12:00:29;100193.25;;;33.15;18.84
69780;BME280;57052;55.602;38.096;2023-06-22T12:02:55;100194.16;;;33.35;18.31
69780;BME280;57052;55.602;38.096;2023-06-22T12:05:22;100176.06;;;33.39;18.08
69780;BME280;57052;55.602;38.096;2023-06-22T12:07:48;100184.16;;;33.61;18.78
69780;BME280;57052;55.602;38.096;2023-06-22T12:10:15;100180.19;;;33.81;18.50
69780;BME280;57052;55.602;38.096;2023-06-22T12:12:41;100173.75;;;34.04;17.80
69780;BME280;57052;55.602;38.096;2023-06-22T12:15:08;100163.44;;;34.21;17.96
69780;BME280;57052;55.602;38.096;2023-06-22T12:17:34;100165.53;;;34.36;17.90
69780;BME280;57052;55.602;38.096;2023-06-22T12:20:00;100158.00;;;34.10;17.55
69780;BME280;57052;55.602;38.096;2023-06-22T12:22:26;100151.44;;;33.97;18.04
69780;BME280;57052;55.602;38.096;2023-06-22T12:24:51;100160.88;;;33.83;18.31
69780;BME280;57052;55.602;38.096;2023-06-22T12:27:17;100154.31;;;33.70;18.45
69780;BME280;57052;55.602;38.096;2023-06-22T12:29:46;100153.63;;;33.63;18.50
69780;BME280;57052;55.602;38.096;2023-06-22T12:32:12;100148.19;;;33.52;18.18
69780;BME280;57052;55.602;38.096;2023-06-22T12:34:39;100150.41;;;33.64;18.33
69780;BME280;57052;55.602;38.096;2023-06-22T12:37:05;100151.66;;;33.60;18.71
69780;BME280;57052;55.602;38.096;2023-06-22T12:39:32;100132.19;;;33.49;18.51
69780;BME280;57052;55.602;38.096;2023-06-22T12:41:58;100137.84;;;33.45;18.95
69780;BME280;57052;55.602;38.096;2023-06-22T12:44:24;100129.13;;;33.40;19.15